Главная страница
METAR-TAF:

METAR-TAF

Аэропорты :

Гоув

Gove Peninsula, Австралия

широта: 12-16-12S, долгота: 136-49-06E, высота над уровнем моря: 62 м

Текущие метеонаблюдения

Эта сводка был подготовлена 34 минут назад, в 10:00 UTC
Ветер 9 Узел от восточно-юго-восточный
Температура 27°C
Влажность 79%
Давление 1012 hPa
Видимость 10 км и более
Сплошная облачность на высоте 4800 фута

METAR: YPGV 251000Z AUTO 12009KT 9999 // OVC048 27/23 Q1012 RF00.0/000.0

Время: 20:04 (10:34 UTC)

Прогноз

Эта сводка был подготовлена 3 часа и 25 минут назад, в 07:09 UTC
Прогноз действительный с 25-го 08 UTC до 25-го 20 UTC
Ветер 12 Узел от восточно-юго-восточный
Видимость 10 км и более
Отдельные облака на высоте 2500 фута
С 25-го 0900 UTC
Ветер 8 Узел от юго-восточный
Видимость 10 км и более
Отдельные облака на высоте 1800 фута
Отдельные облака на высоте 5000 фута

TAF: YPGV 250709Z 2508/2520 12012KT 9999 SCT025 FM250900 13008KT 9999 SCT018 SCT050

Метеонаблюдения и прогнозы для более 4000 аэропортов (сводки METAR и TAF).

Имеющиеся станции представлены на карте желтыми и красными точками.

Чтобы увидеть название станции, наведите на нее мышь.

Затем щелкните, чтобы увидеть метеонаблюдения и метеопрогнозы.

Управление картой: чтобы увеличить масштаб, щелкните зеленые кнопки с черным крестиком; чтобы уменьшить масштаб, щелкните зеленую кнопку с тире; для просмотра соседних карт щелкайте зеленые стрелки.


METAR-TAF: